Time;durP1;ratioP1;P1;durP2;ratioP2;P2;SDS_P1;SDS_P2;PMS_P1;PMS_P2;Temp;Humidity;BMP_temperature;BMP_pressure;BME280_temperature;BME280_humidity;BME280_pressure;Samples;Min_cycle;Max_cycle;Signal;HPM_P1;HPM_P2
2023/02/11 00:02:00;;;;;;;34.60;14.40;;;1.90;99.90;;;;;;4192064;28;20456;-78
2023/02/11 00:04:04;;;;;;;36.03;15.27;;;1.90;99.90;;;;;;4194222;28;20518;-78
2023/02/11 00:06:09;;;;;;;44.53;16.47;;;2.00;99.90;;;;;;4188748;28;21146;-78
2023/02/11 00:08:15;;;;;;;34.50;14.67;;;2.00;99.90;;;;;;4189262;28;20483;-77
2023/02/11 00:10:17;;;;;;;32.43;13.43;;;2.00;99.90;;;;;;4190546;28;20469;-78
2023/02/11 00:12:19;;;;;;;33.93;14.33;;;2.00;99.90;;;;;;4193803;28;20479;-77
2023/02/11 00:14:21;;;;;;;36.10;14.80;;;2.10;99.90;;;;;;4187784;28;20499;-77
2023/02/11 00:16:23;;;;;;;37.43;14.97;;;2.00;99.90;;;;;;4193944;28;20462;-78
2023/02/11 00:18:25;;;;;;;34.63;14.87;;;2.10;99.90;;;;;;4193793;28;20460;-78
2023/02/11 00:20:27;;;;;;;33.77;14.77;;;2.10;99.90;;;;;;4194842;28;21036;-78
2023/02/11 00:22:31;;;;;;;37.23;16.20;;;2.00;99.90;;;;;;4189979;28;20450;-77
2023/02/11 00:24:32;;;;;;;36.17;15.90;;;2.00;99.90;;;;;;4191024;28;20479;-77
2023/02/11 00:26:35;;;;;;;38.87;15.50;;;2.10;99.90;;;;;;4193937;28;20461;-78
2023/02/11 00:28:37;;;;;;;37.57;15.03;;;2.10;99.90;;;;;;4194924;28;20449;-77
2023/02/11 00:30:39;;;;;;;35.87;14.33;;;2.10;99.90;;;;;;4194207;28;21027;-78
2023/02/11 00:32:42;;;;;;;36.90;14.97;;;2.10;99.90;;;;;;4195029;28;20444;-77
2023/02/11 00:34:44;;;;;;;36.80;14.90;;;2.10;99.90;;;;;;4194372;28;20545;-77
2023/02/11 00:36:46;;;;;;;36.10;15.30;;;2.10;99.90;;;;;;4192271;28;20564;-77
2023/02/11 00:38:50;;;;;;;33.80;15.43;;;2.10;99.90;;;;;;4192365;28;20499;-77
2023/02/11 00:40:52;;;;;;;30.80;14.10;;;2.10;99.90;;;;;;4205369;28;20521;-77
2023/02/11 00:42:53;;;;;;;35.83;15.10;;;2.10;99.90;;;;;;4195217;28;20459;-77
2023/02/11 00:44:55;;;;;;;39.57;16.43;;;2.10;99.90;;;;;;4194536;28;20444;-78
2023/02/11 00:46:57;;;;;;;36.57;15.70;;;2.00;99.90;;;;;;4193892;28;20452;-79
2023/02/11 00:48:59;;;;;;;34.53;15.20;;;2.00;99.90;;;;;;4193318;28;21013;-78
2023/02/11 00:51:02;;;;;;;37.10;14.87;;;2.00;99.90;;;;;;4194156;28;20477;-78
2023/02/11 00:53:04;;;;;;;37.17;15.10;;;2.00;99.90;;;;;;4192908;28;20996;-78
2023/02/11 00:55:08;;;;;;;40.93;16.07;;;2.00;99.90;;;;;;4193589;28;20466;-77
2023/02/11 00:57:10;;;;;;;34.53;15.40;;;2.00;99.90;;;;;;4196072;28;20462;-78
2023/02/11 00:59:12;;;;;;;37.47;15.87;;;2.00;99.90;;;;;;4194636;28;20546;-77
2023/02/11 01:01:15;;;;;;;43.23;16.27;;;2.00;99.90;;;;;;4196921;28;20594;-77
2023/02/11 01:03:16;;;;;;;41.43;16.93;;;2.10;99.90;;;;;;4197600;28;20455;-78
2023/02/11 01:05:19;;;;;;;36.13;15.43;;;1.90;99.90;;;;;;4197258;28;20953;-77
2023/02/11 01:07:21;;;;;;;39.57;15.50;;;2.00;99.90;;;;;;4196297;28;20452;-77
2023/02/11 01:09:23;;;;;;;41.00;16.13;;;1.90;99.90;;;;;;4191679;28;20451;-78
2023/02/11 01:11:26;;;;;;;36.83;15.87;;;1.90;99.90;;;;;;4197026;28;20524;-78
2023/02/11 01:13:30;;;;;;;40.23;16.57;;;1.90;99.90;;;;;;4197258;28;21203;-77
2023/02/11 01:15:33;;;;;;;36.10;15.13;;;1.90;99.90;;;;;;4196319;28;20448;-77
2023/02/11 01:17:35;;;;;;;36.07;15.80;;;1.90;99.90;;;;;;4193992;28;20455;-77
2023/02/11 01:19:38;;;;;;;39.83;16.07;;;1.90;99.90;;;;;;4196102;28;20541;-77
2023/02/11 01:21:40;;;;;;;36.90;15.80;;;1.90;99.90;;;;;;4194876;28;20470;-78
2023/02/11 01:23:42;;;;;;;37.80;16.57;;;1.90;99.90;;;;;;4197704;28;20451;-78
2023/02/11 01:25:44;;;;;;;37.53;15.60;;;1.90;99.90;;;;;;4196449;28;20447;-77
2023/02/11 01:27:47;;;;;;;36.10;15.97;;;2.00;99.90;;;;;;4198388;28;20456;-78
2023/02/11 01:29:49;;;;;;;34.57;15.93;;;2.00;99.90;;;;;;4194643;28;20445;-77
2023/02/11 01:31:51;;;;;;;37.33;16.20;;;2.00;99.90;;;;;;4192553;28;20455;-78
2023/02/11 01:33:53;;;;;;;38.10;16.40;;;2.10;99.90;;;;;;4196171;28;20522;-77
2023/02/11 01:35:55;;;;;;;40.77;16.53;;;2.10;99.90;;;;;;4196636;28;20904;-77
2023/02/11 01:37:57;;;;;;;35.57;15.73;;;2.10;99.90;;;;;;4195103;28;20521;-78
2023/02/11 01:39:59;;;;;;;33.20;15.13;;;2.20;99.90;;;;;;4194966;28;20482;-77
2023/02/11 01:42:02;;;;;;;37.47;16.87;;;2.20;99.90;;;;;;4196154;28;20555;-78
2023/02/11 01:44:24;;;;;;;40.10;16.70;;;2.20;99.90;;;;;;4195150;28;20529;-78
2023/02/11 01:46:32;;;;;;;40.40;17.13;;;2.20;99.90;;;;;;4195078;28;20546;-78
2023/02/11 01:48:38;;;;;;;43.10;16.10;;;2.20;99.90;;;;;;4193330;28;20537;-78
2023/02/11 01:50:42;;;;;;;39.63;15.87;;;2.20;99.90;;;;;;4193601;28;20479;-77
2023/02/11 01:52:46;;;;;;;39.17;15.53;;;2.20;99.90;;;;;;4197174;28;21132;-78
2023/02/11 01:57:23;;;;;;;35.33;15.03;;;2.30;99.90;;;;;;4194685;28;20460;-78
2023/02/11 01:59:32;;;;;;;34.43;15.90;;;2.30;99.90;;;;;;4191699;28;20470;-77
2023/02/11 02:01:36;;;;;;;35.37;16.23;;;2.30;99.90;;;;;;4189218;28;20996;-78
2023/02/11 02:03:43;;;;;;;34.33;14.97;;;2.30;99.90;;;;;;4194294;28;20972;-77
2023/02/11 02:05:51;;;;;;;36.97;15.57;;;2.30;99.90;;;;;;4193240;28;20475;-77
2023/02/11 02:08:00;;;;;;;37.67;16.10;;;2.40;99.90;;;;;;4192321;28;20487;-77
2023/02/11 02:10:06;;;;;;;36.37;15.00;;;2.40;99.90;;;;;;4196236;28;20983;-77
2023/02/11 02:12:08;;;;;;;37.57;16.13;;;2.40;99.90;;;;;;4192808;28;20933;-78
2023/02/11 02:14:10;;;;;;;33.37;15.03;;;2.40;99.90;;;;;;4194093;28;20488;-77
2023/02/11 02:16:17;;;;;;;32.73;14.97;;;2.50;99.90;;;;;;4195661;28;20488;-77
2023/02/11 02:18:32;;;;;;;33.43;15.40;;;2.50;99.90;;;;;;4191871;28;20892;-79
2023/02/11 02:21:13;;;;;;;35.50;15.50;;;2.50;99.90;;;;;;4195191;28;20492;-77
2023/02/11 02:23:29;;;;;;;39.63;15.83;;;2.50;99.90;;;;;;4194432;28;20844;-78
2023/02/11 02:26:02;;;;;;;38.60;15.00;;;2.60;99.90;;;;;;4195421;28;20466;-77
2023/02/11 02:28:20;;;;;;;37.60;15.83;;;2.60;99.90;;;;;;4196023;28;20493;-77
2023/02/11 02:31:12;;;;;;;37.60;15.33;;;2.60;99.90;;;;;;4195525;28;20467;-77
2023/02/11 02:33:30;;;;;;;35.73;15.03;;;2.70;99.90;;;;;;4195242;28;20460;-78
2023/02/11 02:35:40;;;;;;;42.10;15.83;;;2.70;99.90;;;;;;4193065;28;20505;-78
2023/02/11 02:37:51;;;;;;;34.90;15.20;;;2.70;99.90;;;;;;4195696;28;20567;-78
2023/02/11 02:39:53;;;;;;;36.93;15.60;;;2.70;99.90;;;;;;4193783;28;20495;-78
2023/02/11 02:41:56;;;;;;;35.50;15.60;;;2.70;99.90;;;;;;4191731;28;20997;-78
2023/02/11 02:43:59;;;;;;;34.03;14.87;;;2.70;99.90;;;;;;4192415;28;20471;-77
2023/02/11 02:46:11;;;;;;;35.97;15.80;;;2.80;99.90;;;;;;4195883;28;20460;-77
2023/02/11 02:48:26;;;;;;;33.57;15.20;;;2.80;99.90;;;;;;4195726;28;20820;-78
2023/02/11 02:50:32;;;;;;;35.30;15.47;;;2.80;99.90;;;;;;4196229;28;20497;-77
2023/02/11 02:52:42;;;;;;;39.67;16.27;;;2.80;99.90;;;;;;4196201;28;20462;-78
2023/02/11 02:55:11;;;;;;;38.47;15.73;;;2.80;99.90;;;;;;4193101;28;20503;-78
2023/02/11 02:57:29;;;;;;;34.63;15.43;;;2.90;99.90;;;;;;4187703;28;20995;-78
2023/02/11 02:59:43;;;;;;;36.37;15.17;;;2.90;99.90;;;;;;4194243;28;20444;-77
2023/02/11 03:01:55;;;;;;;31.53;15.03;;;2.90;99.90;;;;;;4196085;28;20487;-78
2023/02/11 03:04:07;;;;;;;40.40;16.17;;;2.90;99.90;;;;;;4196168;28;20812;-77
2023/02/11 03:06:13;;;;;;;36.80;16.33;;;2.90;99.90;;;;;;4195340;28;20463;-77
2023/02/11 03:08:20;;;;;;;34.77;16.17;;;2.90;99.90;;;;;;4188128;28;20865;-78
2023/02/11 03:10:26;;;;;;;38.60;15.83;;;2.90;99.90;;;;;;4196100;28;20478;-77
2023/02/11 03:12:31;;;;;;;36.43;16.67;;;2.90;99.90;;;;;;4194856;28;20495;-77
2023/02/11 03:14:35;;;;;;;35.23;16.27;;;2.90;99.90;;;;;;4192121;28;20517;-78
2023/02/11 03:16:39;;;;;;;33.70;15.07;;;2.90;99.90;;;;;;4194799;28;20448;-77
2023/02/11 03:18:46;;;;;;;34.77;15.70;;;3.00;99.90;;;;;;4190999;28;20464;-77
2023/02/11 03:20:53;;;;;;;40.07;16.20;;;2.90;99.90;;;;;;4191185;28;20507;-77
2023/02/11 03:22:58;;;;;;;38.73;15.93;;;3.00;99.90;;;;;;4194241;28;20460;-77
2023/02/11 03:25:01;;;;;;;35.17;15.57;;;2.90;99.90;;;;;;4186998;28;20478;-78
2023/02/11 03:27:10;;;;;;;37.27;16.67;;;3.00;99.90;;;;;;4193766;28;20521;-77
2023/02/11 03:29:18;;;;;;;37.17;16.10;;;3.00;99.90;;;;;;4188631;28;21010;-77
2023/02/11 03:31:28;;;;;;;40.00;16.73;;;3.00;99.90;;;;;;4193482;28;20528;-77
2023/02/11 03:33:36;;;;;;;38.73;16.60;;;3.00;99.90;;;;;;4192965;28;20865;-77
2023/02/11 03:35:41;;;;;;;36.73;17.00;;;3.00;99.90;;;;;;4196987;28;20507;-77
2023/02/11 03:37:51;;;;;;;35.80;16.57;;;3.00;99.90;;;;;;4200273;28;20841;-77
2023/02/11 03:39:59;;;;;;;43.00;17.87;;;3.00;99.90;;;;;;4199998;28;20451;-78
2023/02/11 03:42:03;;;;;;;40.20;16.63;;;3.10;99.90;;;;;;4201125;28;20485;-78
2023/02/11 03:44:06;;;;;;;40.60;17.37;;;3.00;99.90;;;;;;4204352;28;20486;-78
2023/02/11 03:46:11;;;;;;;41.80;17.20;;;3.00;99.90;;;;;;4204099;28;20465;-77
2023/02/11 03:48:16;;;;;;;37.70;16.60;;;3.00;99.90;;;;;;4206327;28;20693;-78
2023/02/11 03:50:20;;;;;;;43.40;17.43;;;3.00;99.90;;;;;;4199073;28;20779;-77
2023/02/11 03:52:24;;;;;;;37.80;15.93;;;3.00;99.90;;;;;;4194711;28;20464;-77
2023/02/11 03:54:30;;;;;;;41.57;17.60;;;3.10;99.90;;;;;;4192340;28;20456;-77
2023/02/11 03:56:39;;;;;;;41.27;17.33;;;3.10;99.90;;;;;;4192491;28;21020;-77
2023/02/11 03:58:41;;;;;;;40.13;18.07;;;3.10;99.90;;;;;;4190766;28;20514;-77
2023/02/11 04:00:43;;;;;;;38.63;16.23;;;3.10;99.90;;;;;;4192478;28;20484;-77
2023/02/11 04:02:46;;;;;;;37.77;16.67;;;3.20;99.90;;;;;;4207666;28;20467;-77
2023/02/11 04:04:48;;;;;;;39.60;16.67;;;3.20;99.90;;;;;;4193651;28;21004;-77
2023/02/11 04:06:50;;;;;;;43.47;17.47;;;3.20;99.90;;;;;;4193200;28;20467;-78
2023/02/11 04:08:52;;;;;;;40.40;16.83;;;3.30;99.90;;;;;;4187786;28;20498;-77
2023/02/11 04:10:55;;;;;;;42.30;17.67;;;3.20;99.90;;;;;;4189258;28;20477;-77
2023/02/11 04:12:57;;;;;;;38.83;17.33;;;3.30;99.90;;;;;;4193364;28;20942;-78
2023/02/11 04:14:59;;;;;;;38.30;17.03;;;3.30;99.90;;;;;;4194893;28;20592;-77
2023/02/11 04:17:01;;;;;;;39.43;16.67;;;3.30;99.90;;;;;;4194485;28;20521;-77
2023/02/11 04:19:03;;;;;;;43.90;18.10;;;3.40;99.90;;;;;;4191304;28;20448;-78
2023/02/11 04:21:05;;;;;;;40.87;16.90;;;3.30;99.90;;;;;;4193492;28;20515;-77
2023/02/11 04:23:09;;;;;;;41.40;17.07;;;3.40;99.90;;;;;;4190920;28;20860;-78
2023/02/11 04:25:11;;;;;;;40.37;17.07;;;3.40;99.90;;;;;;4191443;28;20898;-77
2023/02/11 04:27:14;;;;;;;38.87;17.40;;;3.40;99.90;;;;;;4193982;28;20484;-77
2023/02/11 04:29:16;;;;;;;42.40;16.60;;;3.40;99.90;;;;;;4194376;28;21465;-77
2023/02/11 04:31:18;;;;;;;40.90;16.20;;;3.40;99.90;;;;;;4196023;28;20484;-77
2023/02/11 04:33:20;;;;;;;38.30;16.60;;;3.40;99.90;;;;;;4197286;28;20460;-77
2023/02/11 04:35:23;;;;;;;38.63;17.10;;;3.40;99.90;;;;;;4195497;28;20887;-77
2023/02/11 04:37:25;;;;;;;43.70;17.27;;;3.40;99.90;;;;;;4196455;28;20502;-77
2023/02/11 04:39:27;;;;;;;39.13;17.50;;;3.40;99.90;;;;;;4194264;28;20483;-77
2023/02/11 04:41:29;;;;;;;38.23;16.43;;;3.50;99.90;;;;;;4195442;28;20574;-77
2023/02/11 04:43:32;;;;;;;37.37;17.07;;;3.50;99.90;;;;;;4196043;28;20452;-77
2023/02/11 04:45:34;;;;;;;39.70;16.57;;;3.40;99.90;;;;;;4196865;28;20502;-77
2023/02/11 04:47:36;;;;;;;43.43;17.50;;;3.50;99.90;;;;;;4197549;28;20464;-78
2023/02/11 04:49:38;;;;;;;38.30;16.50;;;3.50;99.90;;;;;;4196316;28;20459;-77
2023/02/11 04:51:41;;;;;;;38.93;17.33;;;3.50;99.90;;;;;;4186052;28;20604;-77
2023/02/11 04:53:43;;;;;;;38.13;15.97;;;3.50;99.90;;;;;;4192767;28;20483;-77
2023/02/11 04:55:44;;;;;;;37.07;17.07;;;3.50;99.90;;;;;;4185053;28;20445;-77
2023/02/11 04:57:46;;;;;;;41.33;17.77;;;3.50;99.90;;;;;;4194959;28;20589;-77
2023/02/11 04:59:50;;;;;;;34.10;16.33;;;3.50;99.90;;;;;;4196429;28;20510;-77
2023/02/11 05:01:52;;;;;;;39.17;16.50;;;3.50;99.90;;;;;;4194132;28;20483;-77
2023/02/11 05:03:54;;;;;;;39.83;17.13;;;3.50;99.90;;;;;;4192531;28;20539;-77
2023/02/11 05:05:55;;;;;;;43.87;17.33;;;3.50;99.90;;;;;;4196005;28;20448;-78
2023/02/11 05:07:57;;;;;;;40.60;17.87;;;3.50;99.90;;;;;;4193793;28;21214;-77
2023/02/11 05:09:59;;;;;;;34.80;15.53;;;3.50;99.90;;;;;;4197742;28;20938;-77
2023/02/11 05:12:01;;;;;;;38.37;16.73;;;3.60;99.90;;;;;;4196024;28;20539;-77
2023/02/11 05:14:03;;;;;;;39.83;18.07;;;3.60;99.90;;;;;;4194353;28;20818;-77
2023/02/11 05:16:07;;;;;;;40.73;16.60;;;3.50;99.90;;;;;;4194120;28;20464;-77
2023/02/11 05:18:09;;;;;;;38.20;16.67;;;3.60;99.90;;;;;;4185305;28;20546;-77
2023/02/11 05:20:11;;;;;;;42.37;17.80;;;3.60;99.90;;;;;;4195301;28;20471;-77
2023/02/11 05:22:13;;;;;;;43.90;17.70;;;3.60;99.90;;;;;;4194239;28;20483;-78
2023/02/11 05:24:15;;;;;;;42.80;17.23;;;3.60;99.90;;;;;;4196208;28;20475;-77
2023/02/11 05:26:18;;;;;;;37.77;17.17;;;3.60;99.90;;;;;;4193715;28;20517;-77
2023/02/11 05:28:20;;;;;;;44.03;17.57;;;3.60;99.90;;;;;;4188323;28;20463;-77
2023/02/11 05:30:22;;;;;;;40.97;18.07;;;3.60;99.90;;;;;;4193348;28;21300;-78
2023/02/11 05:32:25;;;;;;;43.43;18.13;;;3.60;99.90;;;;;;4195265;28;20436;-77
2023/02/11 05:34:27;;;;;;;44.07;18.37;;;3.60;99.90;;;;;;4194353;28;20491;-77
2023/02/11 05:36:30;;;;;;;46.70;17.33;;;3.60;99.90;;;;;;4193467;28;20519;-77
2023/02/11 05:38:32;;;;;;;40.70;17.23;;;3.60;99.90;;;;;;4194522;28;21004;-77
2023/02/11 05:40:34;;;;;;;39.90;17.43;;;3.60;99.90;;;;;;4194886;28;20472;-77
2023/02/11 05:42:36;;;;;;;42.00;18.37;;;3.60;99.90;;;;;;4193202;28;20520;-77
2023/02/11 05:44:38;;;;;;;41.93;17.47;;;3.60;99.90;;;;;;4197545;28;20476;-78
2023/02/11 05:46:40;;;;;;;45.17;18.50;;;3.70;99.90;;;;;;4191922;28;20556;-78
2023/02/11 05:48:43;;;;;;;40.43;18.13;;;3.70;99.90;;;;;;4196563;28;20555;-78
2023/02/11 05:50:45;;;;;;;46.90;18.43;;;3.70;99.90;;;;;;4196294;28;20472;-78
2023/02/11 05:52:47;;;;;;;46.87;19.03;;;3.70;99.90;;;;;;4197254;28;20510;-78
2023/02/11 05:54:49;;;;;;;44.07;18.50;;;3.70;99.90;;;;;;4196818;28;20476;-78
2023/02/11 05:56:51;;;;;;;46.47;19.43;;;3.70;99.90;;;;;;4197021;28;20523;-78
2023/02/11 05:58:53;;;;;;;49.17;19.30;;;3.70;99.90;;;;;;4198251;28;20455;-78
2023/02/11 06:00:55;;;;;;;41.17;18.77;;;3.70;99.90;;;;;;4197297;28;20549;-78
2023/02/11 06:02:57;;;;;;;45.53;18.87;;;3.70;99.90;;;;;;4191435;28;20480;-78
2023/02/11 06:05:01;;;;;;;46.27;19.03;;;3.70;99.90;;;;;;4191967;28;20537;-78
2023/02/11 06:07:03;;;;;;;49.87;19.00;;;3.70;99.90;;;;;;4194324;28;20492;-77
2023/02/11 06:09:05;;;;;;;45.97;17.87;;;3.70;99.90;;;;;;4189847;28;20448;-78
2023/02/11 06:11:07;;;;;;;39.63;17.73;;;3.70;99.90;;;;;;4193735;28;20483;-78
2023/02/11 06:13:09;;;;;;;39.13;18.00;;;3.70;99.90;;;;;;4195823;28;20953;-78
2023/02/11 06:15:11;;;;;;;50.80;20.20;;;3.70;99.90;;;;;;4194227;28;20455;-78
2023/02/11 06:17:13;;;;;;;48.53;19.20;;;3.70;99.90;;;;;;4196772;28;20984;-78
2023/02/11 06:19:14;;;;;;;48.50;19.43;;;3.70;99.90;;;;;;4196391;28;20456;-78
2023/02/11 06:21:18;;;;;;;52.63;19.60;;;3.70;99.90;;;;;;4193157;28;21216;-78
2023/02/11 06:23:20;;;;;;;51.30;20.63;;;3.70;99.90;;;;;;4194949;28;20448;-78
2023/02/11 06:25:22;;;;;;;43.87;19.53;;;3.70;99.90;;;;;;4195054;28;21249;-77
2023/02/11 06:27:24;;;;;;;48.67;20.40;;;3.70;99.90;;;;;;4196136;28;20437;-78
2023/02/11 06:29:28;;;;;;;47.43;20.43;;;3.70;99.90;;;;;;4192926;28;20553;-78
2023/02/11 06:31:30;;;;;;;46.23;19.43;;;3.70;99.90;;;;;;4194820;28;20503;-78
2023/02/11 06:33:32;;;;;;;50.90;20.33;;;3.70;99.90;;;;;;4195787;28;20463;-78
2023/02/11 06:35:35;;;;;;;48.37;19.70;;;3.70;99.90;;;;;;4193327;28;20456;-78
2023/02/11 06:37:38;;;;;;;49.47;19.80;;;3.70;99.90;;;;;;4193805;28;20471;-78
2023/02/11 06:39:40;;;;;;;49.43;20.80;;;3.70;99.90;;;;;;4193695;28;20463;-78
2023/02/11 06:41:42;;;;;;;52.03;20.93;;;3.80;99.90;;;;;;4192034;28;20487;-78
2023/02/11 06:43:44;;;;;;;47.93;20.23;;;3.80;99.90;;;;;;4193203;28;20486;-78
2023/02/11 06:45:53;;;;;;;52.13;20.47;;;3.80;99.90;;;;;;4194105;28;20464;-78
2023/02/11 06:47:55;;;;;;;49.87;20.50;;;3.80;99.90;;;;;;4194009;28;20492;-78
2023/02/11 06:49:56;;;;;;;51.37;21.93;;;3.80;99.90;;;;;;4193791;28;20444;-78
2023/02/11 06:51:58;;;;;;;48.97;20.73;;;3.80;99.90;;;;;;4191833;28;20475;-78
2023/02/11 06:54:02;;;;;;;47.00;19.80;;;3.90;99.90;;;;;;4194764;28;20459;-79
2023/02/11 06:56:05;;;;;;;51.87;21.83;;;3.90;99.90;;;;;;4208674;28;20473;-78
2023/02/11 06:58:10;;;;;;;47.43;20.70;;;3.90;99.90;;;;;;4192675;28;20544;-78
2023/02/11 07:00:13;;;;;;;51.20;20.83;;;3.90;99.90;;;;;;4205878;28;20583;-78
2023/02/11 07:02:15;;;;;;;49.53;19.73;;;3.90;99.90;;;;;;4194569;28;20516;-78
2023/02/11 07:04:18;;;;;;;50.57;21.47;;;3.90;99.90;;;;;;4194094;28;20467;-78
2023/02/11 07:06:22;;;;;;;45.00;18.97;;;3.90;99.90;;;;;;4194725;28;20445;-78
2023/02/11 07:08:24;;;;;;;45.07;18.97;;;3.90;99.90;;;;;;4188623;28;20488;-78
2023/02/11 07:10:27;;;;;;;52.87;20.37;;;4.00;99.90;;;;;;4190768;28;20570;-78
2023/02/11 07:12:29;;;;;;;47.57;20.33;;;4.00;99.90;;;;;;4185856;28;20440;-78
2023/02/11 07:14:31;;;;;;;53.77;20.93;;;4.00;99.90;;;;;;4188808;28;20567;-77
2023/02/11 07:16:33;;;;;;;47.63;20.40;;;4.00;99.90;;;;;;4191325;28;20457;-77
2023/02/11 07:18:34;;;;;;;50.17;20.97;;;4.00;99.90;;;;;;4194134;28;20539;-77
2023/02/11 07:20:37;;;;;;;47.57;20.53;;;4.00;99.90;;;;;;4190983;28;20518;-78
2023/02/11 07:22:39;;;;;;;43.97;18.73;;;4.10;99.90;;;;;;4191952;28;20531;-78
2023/02/11 07:24:41;;;;;;;53.93;20.97;;;4.10;99.90;;;;;;4194401;28;20457;-77
2023/02/11 07:26:44;;;;;;;50.87;20.00;;;4.10;99.90;;;;;;4192362;28;20452;-77
2023/02/11 07:28:46;;;;;;;46.77;20.60;;;4.10;99.90;;;;;;4189952;28;20551;-77
2023/02/11 07:30:48;;;;;;;44.07;20.13;;;4.10;99.90;;;;;;4192664;28;20972;-77
2023/02/11 07:32:50;;;;;;;49.47;20.60;;;4.10;99.90;;;;;;4191359;28;20498;-77
2023/02/11 07:34:52;;;;;;;44.00;18.70;;;4.10;99.90;;;;;;4194128;28;20476;-77
2023/02/11 07:36:54;;;;;;;45.50;19.43;;;4.10;99.90;;;;;;4190356;28;20560;-79
2023/02/11 07:38:56;;;;;;;45.23;20.70;;;4.20;99.90;;;;;;4192887;28;20870;-77
2023/02/11 07:41:00;;;;;;;43.80;19.37;;;4.20;99.90;;;;;;4192683;28;21159;-78
2023/02/11 07:43:03;;;;;;;47.43;19.57;;;4.20;99.90;;;;;;4191115;28;20861;-78
2023/02/11 07:45:06;;;;;;;48.13;20.10;;;4.20;99.90;;;;;;4191259;28;20466;-78
2023/02/11 07:47:08;;;;;;;47.97;20.60;;;4.20;99.90;;;;;;4192182;28;21084;-78
2023/02/11 07:49:10;;;;;;;47.73;20.57;;;4.20;99.90;;;;;;4191243;28;20455;-78
2023/02/11 07:51:14;;;;;;;48.80;19.67;;;4.20;99.90;;;;;;4193020;28;20476;-78
2023/02/11 07:53:16;;;;;;;42.40;19.13;;;4.20;99.90;;;;;;4193067;28;20480;-79
2023/02/11 07:55:18;;;;;;;43.20;19.07;;;4.30;99.90;;;;;;4193133;28;20460;-77
2023/02/11 07:57:20;;;;;;;52.80;20.97;;;4.40;99.90;;;;;;4193838;28;20455;-77
2023/02/11 07:59:24;;;;;;;48.13;20.73;;;4.30;99.90;;;;;;4192227;28;20456;-78
2023/02/11 08:01:27;;;;;;;47.83;20.63;;;4.40;99.90;;;;;;4193355;28;20467;-77
2023/02/11 08:03:29;;;;;;;43.70;19.53;;;4.40;99.90;;;;;;4191946;28;20509;-77
2023/02/11 08:05:31;;;;;;;45.83;19.63;;;4.40;99.90;;;;;;4190530;28;20501;-77
2023/02/11 08:07:33;;;;;;;51.43;20.67;;;4.40;99.90;;;;;;4193385;28;20540;-78
2023/02/11 08:09:35;;;;;;;51.53;20.27;;;4.40;99.90;;;;;;4190827;28;20536;-78
2023/02/11 08:11:39;;;;;;;49.80;20.93;;;4.40;99.90;;;;;;4193560;28;20477;-77
2023/02/11 08:13:41;;;;;;;49.17;21.87;;;4.50;99.90;;;;;;4191141;28;20456;-78
2023/02/11 08:15:45;;;;;;;42.60;19.73;;;4.50;99.90;;;;;;4193822;28;20480;-78
2023/02/11 08:17:46;;;;;;;45.00;19.67;;;4.50;99.90;;;;;;4209462;28;20449;-77
2023/02/11 08:19:49;;;;;;;49.80;21.07;;;4.50;99.90;;;;;;4194265;28;20562;-77
2023/02/11 08:21:54;;;;;;;45.30;20.13;;;4.60;99.90;;;;;;4193264;28;20551;-77
2023/02/11 08:23:57;;;;;;;45.97;20.23;;;4.60;99.90;;;;;;4209970;28;20881;-78
2023/02/11 08:26:01;;;;;;;47.40;21.10;;;4.60;99.90;;;;;;4194621;28;20502;-77
2023/02/11 08:28:03;;;;;;;44.30;21.03;;;4.60;99.90;;;;;;4193099;28;20437;-77
2023/02/11 08:30:09;;;;;;;46.73;20.90;;;4.70;99.90;;;;;;4193051;28;20480;-78
2023/02/11 08:32:13;;;;;;;46.03;19.50;;;4.70;99.90;;;;;;4190895;28;20502;-78
2023/02/11 08:34:17;;;;;;;48.60;19.97;;;4.70;99.90;;;;;;4189969;28;20898;-77
2023/02/11 08:36:22;;;;;;;46.63;20.07;;;4.80;99.90;;;;;;4187333;28;20544;-77
2023/02/11 08:38:23;;;;;;;45.20;20.33;;;4.70;99.90;;;;;;4188331;28;20535;-77
2023/02/11 08:40:25;;;;;;;47.63;20.37;;;4.80;99.90;;;;;;4189822;28;20538;-77
2023/02/11 08:42:27;;;;;;;52.27;21.13;;;4.80;99.90;;;;;;4191780;28;20518;-77
2023/02/11 08:44:29;;;;;;;48.70;20.70;;;4.80;99.90;;;;;;4191442;28;20491;-77
2023/02/11 08:46:31;;;;;;;43.80;19.77;;;4.90;99.90;;;;;;4186527;28;20465;-77
2023/02/11 08:48:35;;;;;;;45.93;20.67;;;4.90;99.90;;;;;;4191315;28;20445;-78
2023/02/11 08:50:39;;;;;;;47.57;20.53;;;5.00;99.90;;;;;;4189200;28;20930;-78
2023/02/11 08:52:41;;;;;;;48.73;20.43;;;5.00;99.90;;;;;;4190478;28;20453;-78
2023/02/11 08:54:45;;;;;;;46.83;21.17;;;5.00;99.90;;;;;;4191931;28;20450;-78
2023/02/11 08:56:51;;;;;;;46.73;19.90;;;5.00;99.90;;;;;;4191626;28;20503;-78
2023/02/11 08:58:53;;;;;;;48.37;21.57;;;5.10;99.90;;;;;;4188927;28;20469;-78
2023/02/11 09:00:55;;;;;;;48.67;20.47;;;5.10;99.90;;;;;;4192017;28;20471;-78
2023/02/11 09:02:57;;;;;;;49.40;19.63;;;5.10;99.90;;;;;;4188251;28;20478;-78
2023/02/11 09:05:01;;;;;;;51.13;21.23;;;5.10;99.90;;;;;;4190853;28;20849;-78
2023/02/11 09:07:03;;;;;;;44.63;20.50;;;5.20;99.90;;;;;;4192654;28;20458;-79
2023/02/11 09:09:05;;;;;;;40.77;19.00;;;5.20;99.90;;;;;;4189530;28;20883;-77
2023/02/11 09:11:08;;;;;;;47.57;21.03;;;5.20;99.90;;;;;;4202701;28;20534;-78
2023/02/11 09:13:10;;;;;;;55.77;23.40;;;5.20;99.90;;;;;;4189669;28;20952;-77
2023/02/11 09:15:12;;;;;;;48.10;20.77;;;5.20;99.90;;;;;;4194330;28;20870;-77
2023/02/11 09:17:14;;;;;;;43.57;20.03;;;5.30;99.90;;;;;;4194602;28;20966;-77
2023/02/11 09:19:18;;;;;;;45.07;20.40;;;5.30;99.90;;;;;;4196071;28;20453;-77
2023/02/11 09:21:21;;;;;;;49.20;20.77;;;5.30;99.90;;;;;;4195442;28;20527;-77
2023/02/11 09:23:23;;;;;;;47.60;20.43;;;5.40;99.90;;;;;;4195487;28;20476;-76
2023/02/11 09:25:25;;;;;;;46.10;20.80;;;5.40;99.90;;;;;;4193655;28;20470;-77
2023/02/11 09:27:27;;;;;;;48.47;20.17;;;5.40;99.90;;;;;;4209977;28;20460;-77
2023/02/11 09:29:29;;;;;;;48.03;20.33;;;5.40;99.90;;;;;;4198355;28;20900;-77
2023/02/11 09:31:32;;;;;;;52.57;22.43;;;5.40;99.90;;;;;;4196029;28;20849;-77
2023/02/11 09:33:38;;;;;;;43.93;20.00;;;5.50;99.90;;;;;;4192695;28;20548;-78
2023/02/11 09:35:40;;;;;;;43.60;20.83;;;5.50;99.90;;;;;;4195035;28;20456;-76
2023/02/11 09:37:43;;;;;;;49.83;21.60;;;5.50;99.90;;;;;;4191892;28;20500;-76
2023/02/11 09:39:45;;;;;;;44.30;20.33;;;5.50;99.90;;;;;;4193598;28;21129;-76
2023/02/11 09:42:20;;;;;;;44.47;20.63;;;5.60;99.90;;;;;;4195513;28;20549;-77
2023/02/11 09:44:24;;;;;;;45.07;19.77;;;5.60;99.90;;;;;;4194201;28;20446;-77
2023/02/11 09:46:31;;;;;;;41.53;19.33;;;5.60;99.90;;;;;;4196164;28;20896;-77
2023/02/11 09:48:40;;;;;;;44.83;20.53;;;5.60;99.90;;;;;;4194081;28;20457;-76
2023/02/11 09:50:47;;;;;;;46.87;21.43;;;5.70;99.90;;;;;;4194798;28;20465;-77
2023/02/11 09:52:56;;;;;;;44.80;19.93;;;5.70;99.90;;;;;;4186187;28;20560;-76
2023/02/11 09:55:01;;;;;;;39.63;19.27;;;5.80;99.90;;;;;;4176791;28;20457;-77
2023/02/11 09:57:04;;;;;;;48.17;20.87;;;5.80;99.90;;;;;;4170897;28;20532;-78
2023/02/11 09:59:10;;;;;;;46.13;19.47;;;5.90;99.90;;;;;;4175010;28;20480;-77
2023/02/11 10:01:24;;;;;;;40.33;19.43;;;5.90;99.90;;;;;;4193718;28;20513;-77
2023/02/11 10:03:58;;;;;;;48.60;20.63;;;6.00;99.90;;;;;;4194324;28;20486;-78
2023/02/11 10:06:18;;;;;;;47.20;20.47;;;6.00;99.90;;;;;;4188410;28;20501;-79
2023/02/11 10:08:30;;;;;;;43.63;19.47;;;6.10;99.90;;;;;;4185958;28;20446;-78
2023/02/11 10:10:46;;;;;;;41.60;18.17;;;6.10;99.90;;;;;;4193613;28;20483;-75
2023/02/11 10:13:03;;;;;;;44.97;18.50;;;6.10;99.90;;;;;;4176605;28;20509;-79
2023/02/11 10:15:24;;;;;;;42.67;19.03;;;6.10;99.90;;;;;;4186590;28;20819;-77
2023/02/11 10:17:35;;;;;;;39.17;17.57;;;6.20;99.90;;;;;;4168172;28;20514;-78
2023/02/11 10:19:59;;;;;;;43.67;18.13;;;6.20;99.90;;;;;;4163074;28;21849;-77
2023/02/11 10:22:09;;;;;;;41.07;18.33;;;6.20;99.90;;;;;;4182347;28;20469;-76
2023/02/11 10:24:15;;;;;;;44.43;19.17;;;6.30;99.90;;;;;;4196911;28;20486;-78
2023/02/11 10:26:19;;;;;;;41.77;18.63;;;6.30;99.90;;;;;;4188953;28;20508;-79
2023/02/11 10:28:23;;;;;;;38.43;18.60;;;6.30;99.90;;;;;;4171580;28;20540;-76
2023/02/11 10:30:30;;;;;;;41.57;17.90;;;6.30;99.90;;;;;;4159017;28;20501;-77
2023/02/11 10:32:39;;;;;;;39.17;18.60;;;6.30;99.90;;;;;;4170302;28;20489;-76
2023/02/11 10:34:41;;;;;;;43.27;18.63;;;6.40;99.90;;;;;;4194197;28;21033;-76
2023/02/11 10:36:44;;;;;;;45.53;18.77;;;6.40;99.90;;;;;;4195463;28;20458;-78
2023/02/11 10:38:46;;;;;;;40.13;18.60;;;6.50;99.90;;;;;;4190391;28;20502;-78
2023/02/11 10:40:50;;;;;;;37.27;18.37;;;6.50;99.90;;;;;;4213980;28;20575;-76
2023/02/11 10:42:53;;;;;;;42.83;18.80;;;6.50;99.90;;;;;;4191502;28;20478;-76